Time;durP1;ratioP1;P1;durP2;ratioP2;P2;SDS_P1;SDS_P2;PMS_P1;PMS_P2;Temp;Humidity;BMP_temperature;BMP_pressure;BME280_temperature;BME280_humidity;BME280_pressure;Samples;Min_cycle;Max_cycle;Signal;HPM_P1;HPM_P2
2021/05/22 00:00:09;;;;;;;0.20;0.20;;;14.00;99.90;;;;;;5111621;28;20205;-72
2021/05/22 00:02:35;;;;;;;0.10;0.10;;;14.70;99.90;;;;;;5112520;28;20165;-71
2021/05/22 00:05:01;;;;;;;0.08;0.08;;;15.10;99.90;;;;;;5112081;28;20180;-70
2021/05/22 00:07:27;;;;;;;0.52;0.52;;;15.20;99.90;;;;;;5112238;28;20247;-70
2021/05/22 00:09:53;;;;;;;0.00;0.00;;;15.30;99.90;;;;;;5112147;28;20198;-70
2021/05/22 00:12:19;;;;;;;0.00;0.00;;;15.30;99.90;;;;;;5112161;28;20156;-70
2021/05/22 00:14:44;;;;;;;0.10;0.10;;;15.40;99.90;;;;;;5111871;28;20156;-70
2021/05/22 00:17:10;;;;;;;11.32;0.68;;;15.40;99.90;;;;;;5112110;28;20170;-70
2021/05/22 00:19:36;;;;;;;0.57;0.57;;;15.40;99.90;;;;;;5111928;28;20194;-70
2021/05/22 00:22:03;;;;;;;0.10;0.10;;;15.30;99.90;;;;;;5111967;28;20162;-70
2021/05/22 00:24:29;;;;;;;0.00;0.00;;;15.20;99.90;;;;;;5093710;28;20232;-70
2021/05/22 00:26:55;;;;;;;0.00;0.00;;;15.20;99.90;;;;;;5111924;28;20159;-70
2021/05/22 00:29:21;;;;;;;0.10;0.10;;;15.30;99.90;;;;;;5111669;28;20203;-70
2021/05/22 00:31:47;;;;;;;0.10;0.10;;;15.30;99.90;;;;;;5110901;28;20640;-70
2021/05/22 00:34:13;;;;;;;0.00;0.00;;;15.20;99.90;;;;;;5111848;28;20217;-70
2021/05/22 00:36:39;;;;;;;1.27;0.30;;;15.10;99.90;;;;;;5111104;28;20155;-70
2021/05/22 00:39:05;;;;;;;0.10;0.10;;;15.00;99.90;;;;;;5111566;28;20207;-70
2021/05/22 00:41:31;;;;;;;0.00;0.00;;;14.80;99.90;;;;;;5093229;28;20250;-70
2021/05/22 00:43:58;;;;;;;0.82;0.15;;;14.80;99.90;;;;;;5093280;28;20198;-70
2021/05/22 00:46:24;;;;;;;0.00;0.00;;;14.70;99.90;;;;;;5093172;28;20534;-70
2021/05/22 00:48:49;;;;;;;0.20;0.20;;;14.40;99.90;;;;;;5111108;28;20221;-70
2021/05/22 00:51:15;;;;;;;1.00;0.45;;;14.20;99.90;;;;;;5111392;28;20219;-70
2021/05/22 00:53:41;;;;;;;0.10;0.10;;;14.10;99.90;;;;;;5111175;28;20156;-70
2021/05/22 00:56:07;;;;;;;0.57;0.57;;;13.90;99.90;;;;;;5111222;28;20213;-70
2021/05/22 00:58:34;;;;;;;0.25;0.10;;;13.70;99.90;;;;;;5092757;28;20217;-70
2021/05/22 01:01:00;;;;;;;0.00;0.00;;;13.70;99.90;;;;;;5110973;28;20163;-70
2021/05/22 01:03:29;;;;;;;0.28;0.28;;;13.70;99.90;;;;;;5111030;28;20155;-70
2021/05/22 01:06:34;;;;;;;0.10;0.10;;;13.60;99.90;;;;;;5111108;28;20222;-70
2021/05/22 01:09:13;;;;;;;0.20;0.20;;;13.70;99.90;;;;;;5105915;28;20214;-70
2021/05/22 01:11:54;;;;;;;0.08;0.08;;;13.70;99.90;;;;;;5110852;28;20175;-70
2021/05/22 01:14:38;;;;;;;0.17;0.17;;;13.90;99.90;;;;;;5110907;28;20623;-70
2021/05/22 01:17:06;;;;;;;1.35;0.63;;;14.00;99.90;;;;;;5110922;28;20190;-70
2021/05/22 01:19:37;;;;;;;0.20;0.20;;;13.90;99.90;;;;;;5110549;28;20225;-70
2021/05/22 01:22:04;;;;;;;0.25;0.25;;;13.50;99.90;;;;;;5110611;28;20151;-70
2021/05/22 01:24:32;;;;;;;0.85;0.32;;;13.40;99.90;;;;;;5110742;28;20156;-70
2021/05/22 01:26:58;;;;;;;0.20;0.20;;;13.40;99.90;;;;;;5110627;28;20159;-70
2021/05/22 01:29:25;;;;;;;4.28;0.40;;;13.50;99.90;;;;;;5092251;28;20273;-70
2021/05/22 01:31:52;;;;;;;0.00;0.00;;;13.50;99.90;;;;;;5110302;28;20273;-70
2021/05/22 01:34:18;;;;;;;0.28;0.28;;;13.40;99.90;;;;;;5092263;28;20178;-70
2021/05/22 01:36:44;;;;;;;0.30;0.30;;;13.30;99.90;;;;;;5103018;28;20175;-70
2021/05/22 01:39:10;;;;;;;0.00;0.00;;;13.10;99.90;;;;;;5109065;28;20199;-70
2021/05/22 01:41:35;;;;;;;0.55;0.55;;;13.10;99.90;;;;;;5109818;28;20211;-70
2021/05/22 01:44:03;;;;;;;1.05;0.40;;;12.90;99.90;;;;;;5108977;28;20171;-70
2021/05/22 01:46:31;;;;;;;0.10;0.10;;;12.70;99.90;;;;;;5109823;28;20644;-70
2021/05/22 01:48:58;;;;;;;1.38;1.27;;;12.60;99.90;;;;;;5109810;28;20210;-71
2021/05/22 01:51:25;;;;;;;0.45;0.35;;;12.50;99.90;;;;;;5110128;28;20519;-70
2021/05/22 01:53:52;;;;;;;0.05;0.05;;;12.60;99.90;;;;;;5110082;28;20167;-70
2021/05/22 01:56:20;;;;;;;0.10;0.10;;;12.50;99.90;;;;;;5110021;28;20164;-70
2021/05/22 01:58:47;;;;;;;1.33;1.23;;;12.40;99.90;;;;;;5109931;28;20243;-70
2021/05/22 02:01:13;;;;;;;0.10;0.10;;;12.20;99.90;;;;;;5110052;28;20170;-70
2021/05/22 02:03:48;;;;;;;0.20;0.20;;;12.00;99.90;;;;;;5091641;28;20199;-70
2021/05/22 02:06:25;;;;;;;0.10;0.10;;;11.90;99.90;;;;;;5109697;28;20207;-70
2021/05/22 02:08:54;;;;;;;1.38;0.77;;;11.90;99.90;;;;;;5109708;28;20220;-70
2021/05/22 02:11:21;;;;;;;0.47;0.47;;;11.80;99.90;;;;;;5109748;28;20162;-70
2021/05/22 02:13:48;;;;;;;0.00;0.00;;;11.80;99.90;;;;;;5109325;28;20187;-70
2021/05/22 02:16:17;;;;;;;0.00;0.00;;;11.80;99.90;;;;;;5109742;28;20231;-70
2021/05/22 02:18:45;;;;;;;0.35;0.15;;;11.80;99.90;;;;;;5091286;28;20207;-70
2021/05/22 02:21:11;;;;;;;0.20;0.20;;;11.60;99.90;;;;;;5109594;28;20156;-70
2021/05/22 02:23:45;;;;;;;1.77;1.50;;;11.50;99.90;;;;;;5109641;28;20152;-70
2021/05/22 02:26:11;;;;;;;0.10;0.10;;;11.60;99.90;;;;;;5109599;28;20160;-70
2021/05/22 02:28:40;;;;;;;0.00;0.00;;;11.70;99.90;;;;;;5091174;28;20209;-70
2021/05/22 02:31:07;;;;;;;0.73;0.73;;;11.70;99.90;;;;;;5109494;28;20227;-70
2021/05/22 02:33:33;;;;;;;0.40;0.40;;;11.60;99.90;;;;;;5109415;28;20159;-70
2021/05/22 02:36:00;;;;;;;0.10;0.10;;;11.70;99.90;;;;;;5107803;28;20187;-70
2021/05/22 02:38:34;;;;;;;0.10;0.10;;;11.80;99.90;;;;;;5108682;28;20199;-70
2021/05/22 02:41:06;;;;;;;0.00;0.00;;;11.90;99.90;;;;;;5091047;28;20163;-70
2021/05/22 02:43:33;;;;;;;0.43;0.40;;;12.00;99.90;;;;;;5109363;28;20193;-70
2021/05/22 02:46:01;;;;;;;1.00;0.30;;;12.00;99.90;;;;;;5090942;28;20159;-70
2021/05/22 02:48:29;;;;;;;0.13;0.13;;;12.00;99.90;;;;;;5090978;28;20266;-70
2021/05/22 02:50:58;;;;;;;0.08;0.08;;;12.00;99.90;;;;;;5109144;28;20198;-70
2021/05/22 02:53:27;;;;;;;0.10;0.10;;;12.00;99.90;;;;;;5109214;28;20584;-70
2021/05/22 02:55:54;;;;;;;0.00;0.00;;;12.10;99.90;;;;;;5090904;28;20263;-70
2021/05/22 02:58:21;;;;;;;0.08;0.08;;;12.10;99.90;;;;;;5108813;28;20247;-70
2021/05/22 03:00:48;;;;;;;0.17;0.17;;;12.10;99.90;;;;;;5109157;28;20166;-70
2021/05/22 03:03:16;;;;;;;0.20;0.20;;;12.00;99.90;;;;;;5109188;28;20156;-70
2021/05/22 03:05:42;;;;;;;0.20;0.20;;;12.00;99.90;;;;;;5108916;28;20181;-70
2021/05/22 03:08:08;;;;;;;0.10;0.10;;;11.80;99.90;;;;;;5090736;28;20267;-70
2021/05/22 03:10:36;;;;;;;0.20;0.20;;;11.70;99.90;;;;;;5109080;28;20661;-70
2021/05/22 03:13:02;;;;;;;0.13;0.13;;;11.60;99.90;;;;;;5108903;28;20512;-70
2021/05/22 03:15:28;;;;;;;0.00;0.00;;;11.60;99.90;;;;;;5090457;28;20171;-70
2021/05/22 03:17:54;;;;;;;0.00;0.00;;;11.70;99.90;;;;;;5108773;28;20252;-70
2021/05/22 03:20:20;;;;;;;0.00;0.00;;;11.80;99.90;;;;;;5108823;28;20191;-69
2021/05/22 03:22:46;;;;;;;0.10;0.10;;;11.80;99.90;;;;;;5108941;28;20159;-69
2021/05/22 03:25:12;;;;;;;0.25;0.25;;;11.80;99.90;;;;;;5109403;28;20616;-69
2021/05/22 03:27:38;;;;;;;4.78;0.93;;;12.00;99.90;;;;;;5112758;28;20175;-70
2021/05/22 03:30:06;;;;;;;6.40;0.73;;;12.10;99.90;;;;;;5112733;28;20674;-69
2021/05/22 03:32:33;;;;;;;0.20;0.20;;;12.10;99.90;;;;;;5094378;28;20167;-69
2021/05/22 03:34:58;;;;;;;3.25;0.40;;;12.00;99.90;;;;;;5112644;28;20189;-70
2021/05/22 03:37:24;;;;;;;0.00;0.00;;;12.00;99.90;;;;;;5111894;28;20163;-70
2021/05/22 03:39:50;;;;;;;0.00;0.00;;;12.00;99.90;;;;;;5112355;28;20199;-70
2021/05/22 03:42:16;;;;;;;0.32;0.32;;;12.00;99.90;;;;;;5111373;28;20218;-70
2021/05/22 03:44:42;;;;;;;0.00;0.00;;;12.10;99.90;;;;;;5093903;28;20169;-69
2021/05/22 03:47:08;;;;;;;0.28;0.28;;;12.20;99.90;;;;;;5112181;28;20155;-70
2021/05/22 03:49:34;;;;;;;0.15;0.15;;;12.20;99.90;;;;;;5112184;28;20187;-70
2021/05/22 03:52:00;;;;;;;0.32;0.32;;;12.20;99.90;;;;;;5094146;28;20583;-70
2021/05/22 03:54:26;;;;;;;0.10;0.10;;;12.20;99.90;;;;;;5094247;28;20232;-70
2021/05/22 03:56:52;;;;;;;0.30;0.30;;;12.30;99.90;;;;;;5112358;28;20172;-70
2021/05/22 03:59:18;;;;;;;0.25;0.20;;;12.40;99.90;;;;;;5112118;28;20207;-70
2021/05/22 04:01:44;;;;;;;0.10;0.10;;;12.40;99.90;;;;;;5112290;28;20159;-70
2021/05/22 04:04:10;;;;;;;0.10;0.10;;;12.50;99.90;;;;;;5093356;28;20659;-70
2021/05/22 04:06:36;;;;;;;0.43;0.32;;;12.50;99.90;;;;;;5112116;28;20152;-70
2021/05/22 04:09:02;;;;;;;0.22;0.22;;;12.60;99.90;;;;;;5111941;28;20198;-70
2021/05/22 04:11:28;;;;;;;0.10;0.10;;;12.50;99.90;;;;;;5111942;28;20192;-70
2021/05/22 04:13:55;;;;;;;0.28;0.28;;;12.40;99.90;;;;;;5112009;28;20175;-70
2021/05/22 04:16:21;;;;;;;0.30;0.30;;;12.50;99.90;;;;;;5111853;28;20175;-70
2021/05/22 04:18:46;;;;;;;0.10;0.10;;;12.50;99.90;;;;;;5111812;28;20229;-70
2021/05/22 04:21:12;;;;;;;0.10;0.10;;;12.60;99.90;;;;;;5111905;28;20548;-70
2021/05/22 04:23:40;;;;;;;0.20;0.20;;;12.60;99.90;;;;;;5111770;28;20205;-70
2021/05/22 04:26:07;;;;;;;0.10;0.10;;;12.80;99.90;;;;;;5111752;28;20490;-70
2021/05/22 04:28:33;;;;;;;0.15;0.13;;;13.00;99.90;;;;;;5111681;28;20193;-69
2021/05/22 04:30:59;;;;;;;0.47;0.47;;;13.20;99.90;;;;;;5111832;28;20171;-70
2021/05/22 04:33:25;;;;;;;0.20;0.20;;;13.30;99.90;;;;;;5111748;28;20151;-69
2021/05/22 04:35:51;;;;;;;0.40;0.30;;;13.30;99.90;;;;;;5110350;28;20175;-69
2021/05/22 04:38:16;;;;;;;0.32;0.32;;;13.40;99.90;;;;;;5111417;28;20191;-69
2021/05/22 04:40:42;;;;;;;0.15;0.15;;;13.60;99.90;;;;;;5111430;28;20190;-70
2021/05/22 04:43:09;;;;;;;0.20;0.20;;;13.90;99.90;;;;;;5111328;28;20719;-70
2021/05/22 04:45:35;;;;;;;0.32;0.20;;;14.10;99.90;;;;;;5093093;28;20174;-70
2021/05/22 04:48:01;;;;;;;0.10;0.10;;;14.30;99.90;;;;;;5092842;28;20171;-70
2021/05/22 04:50:29;;;;;;;0.10;0.10;;;14.20;99.90;;;;;;5111260;28;20159;-70
2021/05/22 04:52:55;;;;;;;0.13;0.13;;;14.30;99.90;;;;;;5111351;28;20657;-70
2021/05/22 04:55:21;;;;;;;0.30;0.30;;;14.10;99.90;;;;;;5093086;28;20171;-70
2021/05/22 04:57:47;;;;;;;0.28;0.28;;;14.20;99.90;;;;;;5092929;28;20254;-70
2021/05/22 05:00:14;;;;;;;0.43;0.43;;;14.40;99.90;;;;;;5092766;28;20203;-70
2021/05/22 05:02:40;;;;;;;5.70;0.45;;;14.40;99.90;;;;;;5092980;28;20167;-69
2021/05/22 05:05:07;;;;;;;0.05;0.05;;;14.20;99.90;;;;;;5109855;28;20189;-70
2021/05/22 05:07:33;;;;;;;0.45;0.45;;;14.20;99.90;;;;;;5111011;28;20178;-70
2021/05/22 05:09:59;;;;;;;0.20;0.20;;;14.20;99.90;;;;;;5091671;28;20199;-70
2021/05/22 05:12:24;;;;;;;0.10;0.10;;;14.40;99.90;;;;;;5110536;28;20546;-69
2021/05/22 05:14:50;;;;;;;0.20;0.20;;;14.70;99.90;;;;;;5110820;28;20190;-69
2021/05/22 05:17:16;;;;;;;2.63;0.45;;;14.80;99.90;;;;;;5110649;28;20214;-70
2021/05/22 05:19:42;;;;;;;0.28;0.28;;;14.90;99.90;;;;;;5110504;28;20203;-70
2021/05/22 05:22:08;;;;;;;0.00;0.00;;;14.70;99.90;;;;;;5110591;28;20163;-70
2021/05/22 05:24:35;;;;;;;0.57;0.57;;;14.40;99.90;;;;;;5110624;28;20152;-70
2021/05/22 05:27:01;;;;;;;0.08;0.08;;;14.20;99.90;;;;;;5110540;28;20164;-70
2021/05/22 05:29:27;;;;;;;0.10;0.10;;;14.20;99.90;;;;;;5092243;28;20289;-70
2021/05/22 05:31:52;;;;;;;0.35;0.35;;;13.90;99.90;;;;;;5110423;28;20164;-70
2021/05/22 05:34:18;;;;;;;0.10;0.10;;;14.00;99.90;;;;;;5092160;28;20175;-70
2021/05/22 05:36:44;;;;;;;1.65;0.68;;;13.90;99.90;;;;;;5109551;28;20239;-71
2021/05/22 05:39:12;;;;;;;0.25;0.20;;;13.70;99.90;;;;;;5109954;28;20225;-70
2021/05/22 05:41:38;;;;;;;0.00;0.00;;;13.60;99.90;;;;;;5088162;28;20273;-70
2021/05/22 05:44:04;;;;;;;0.10;0.10;;;13.50;99.90;;;;;;5089731;28;20227;-70
2021/05/22 05:46:29;;;;;;;0.10;0.10;;;13.30;99.90;;;;;;5089846;28;20160;-70
2021/05/22 05:48:55;;;;;;;0.00;0.00;;;13.20;99.90;;;;;;5088889;28;20222;-70
2021/05/22 05:51:21;;;;;;;1.13;1.13;;;13.20;99.90;;;;;;5089595;28;20164;-70
2021/05/22 05:53:47;;;;;;;0.40;0.40;;;13.20;99.90;;;;;;5089713;28;20164;-70
2021/05/22 05:56:13;;;;;;;0.80;0.80;;;13.20;99.90;;;;;;5089523;28;20222;-70
2021/05/22 05:58:39;;;;;;;0.10;0.10;;;13.20;99.90;;;;;;5089353;28;20204;-70
2021/05/22 06:01:07;;;;;;;0.00;0.00;;;13.10;99.90;;;;;;5089642;28;20186;-69
2021/05/22 06:03:34;;;;;;;0.10;0.10;;;13.10;99.90;;;;;;5089476;28;20673;-69
2021/05/22 06:06:00;;;;;;;0.10;0.10;;;13.00;99.90;;;;;;5089411;28;20152;-69
2021/05/22 06:08:26;;;;;;;0.10;0.10;;;12.90;99.90;;;;;;5087721;28;20198;-70
2021/05/22 06:10:53;;;;;;;0.00;0.00;;;13.00;99.90;;;;;;5089613;28;20156;-70
2021/05/22 06:13:27;;;;;;;0.10;0.10;;;13.10;99.90;;;;;;5088107;28;20171;-70
2021/05/22 06:16:02;;;;;;;0.05;0.05;;;13.20;99.90;;;;;;5089441;28;20156;-70
2021/05/22 06:18:36;;;;;;;0.10;0.10;;;13.30;99.90;;;;;;5089317;28;20195;-70
2021/05/22 06:21:04;;;;;;;0.25;0.25;;;13.30;99.90;;;;;;5088364;28;20164;-69
2021/05/22 06:23:31;;;;;;;0.00;0.00;;;13.30;99.90;;;;;;5088051;28;20174;-69
2021/05/22 06:25:58;;;;;;;0.10;0.10;;;13.10;99.90;;;;;;5089223;28;20186;-70
2021/05/22 06:28:26;;;;;;;1.60;1.50;;;13.00;99.90;;;;;;5089274;28;20195;-69
2021/05/22 06:30:52;;;;;;;0.40;0.30;;;13.10;99.90;;;;;;5089170;28;20183;-70
2021/05/22 06:33:18;;;;;;;1.77;0.90;;;12.90;99.90;;;;;;5089367;28;20652;-69
2021/05/22 06:35:44;;;;;;;1.20;0.50;;;13.00;99.90;;;;;;5088552;28;20698;-70
2021/05/22 06:38:10;;;;;;;7.90;0.47;;;13.00;99.90;;;;;;5089016;28;20160;-71
2021/05/22 06:40:36;;;;;;;0.30;0.30;;;13.00;99.90;;;;;;5087848;28;20168;-71
2021/05/22 06:43:02;;;;;;;1.00;0.52;;;12.90;99.90;;;;;;5087470;28;20228;-71
2021/05/22 06:45:38;;;;;;;0.10;0.10;;;12.90;99.90;;;;;;5089200;28;20160;-71
2021/05/22 06:48:06;;;;;;;0.10;0.10;;;13.00;99.90;;;;;;5089041;28;20577;-71
2021/05/22 06:50:32;;;;;;;0.05;0.05;;;12.90;99.90;;;;;;5088963;28;20152;-71
2021/05/22 06:52:58;;;;;;;0.45;0.20;;;13.00;99.90;;;;;;5088804;28;20166;-73
2021/05/22 06:55:25;;;;;;;0.10;0.10;;;12.90;99.90;;;;;;5089119;28;20164;-71
2021/05/22 06:57:50;;;;;;;0.10;0.10;;;12.80;99.90;;;;;;5088835;28;20171;-71
2021/05/22 07:00:17;;;;;;;0.00;0.00;;;12.80;99.90;;;;;;5089924;28;20275;-71
2021/05/22 07:02:43;;;;;;;0.00;0.00;;;12.70;99.90;;;;;;5093045;28;20184;-71
2021/05/22 07:05:10;;;;;;;0.00;0.00;;;12.60;99.90;;;;;;5092961;28;20171;-71
2021/05/22 07:07:38;;;;;;;0.30;0.30;;;12.50;99.90;;;;;;5092919;28;20168;-70
2021/05/22 07:10:08;;;;;;;0.00;0.00;;;12.20;99.90;;;;;;5092774;28;20196;-70
2021/05/22 07:12:34;;;;;;;0.00;0.00;;;12.00;99.90;;;;;;5092749;28;20187;-70
2021/05/22 07:15:00;;;;;;;0.00;0.00;;;11.80;99.90;;;;;;5091230;28;20236;-70
2021/05/22 07:17:26;;;;;;;0.00;0.00;;;11.80;99.90;;;;;;5091323;28;20179;-70
2021/05/22 07:19:52;;;;;;;0.00;0.00;;;11.80;99.90;;;;;;5092493;28;20207;-70
2021/05/22 07:22:18;;;;;;;0.10;0.10;;;11.70;99.90;;;;;;5092173;28;20221;-70
2021/05/22 07:24:44;;;;;;;0.10;0.10;;;11.70;99.90;;;;;;5092297;28;20247;-70
2021/05/22 07:27:11;;;;;;;0.10;0.10;;;11.80;99.90;;;;;;5092112;28;20206;-70
2021/05/22 07:29:37;;;;;;;0.10;0.10;;;11.80;99.90;;;;;;5086080;28;20207;-70
2021/05/22 07:32:02;;;;;;;0.30;0.30;;;11.80;99.90;;;;;;5091465;28;20188;-71
2021/05/22 07:34:29;;;;;;;0.10;0.10;;;11.80;99.90;;;;;;5091832;28;20190;-70
2021/05/22 07:36:54;;;;;;;0.13;0.13;;;11.90;99.90;;;;;;5089463;28;20218;-70
2021/05/22 07:39:20;;;;;;;0.03;0.03;;;11.90;99.90;;;;;;5092099;28;20187;-70
2021/05/22 07:41:47;;;;;;;6.35;0.52;;;12.20;99.90;;;;;;5099107;28;20211;-70
2021/05/22 07:44:13;;;;;;;0.10;0.10;;;12.10;99.90;;;;;;5112395;28;20179;-70
2021/05/22 07:46:40;;;;;;;0.00;0.00;;;12.10;99.90;;;;;;5112419;28;20187;-71
2021/05/22 07:49:06;;;;;;;0.10;0.10;;;12.20;99.90;;;;;;5112166;28;20183;-71
2021/05/22 07:51:32;;;;;;;0.00;0.00;;;12.30;99.90;;;;;;5093109;28;20663;-71
2021/05/22 07:53:57;;;;;;;0.17;0.17;;;12.30;99.90;;;;;;5093568;28;20190;-71
2021/05/22 07:56:23;;;;;;;0.00;0.00;;;12.30;99.90;;;;;;5111842;28;20203;-71
2021/05/22 07:58:49;;;;;;;0.10;0.10;;;12.30;99.90;;;;;;5112104;28;20213;-71
2021/05/22 08:01:15;;;;;;;0.00;0.00;;;12.30;99.90;;;;;;5093550;28;20497;-71
2021/05/22 08:03:41;;;;;;;0.10;0.10;;;12.40;99.90;;;;;;5093866;28;20198;-70
2021/05/22 08:06:07;;;;;;;0.10;0.10;;;12.40;99.90;;;;;;5111878;28;20213;-70
2021/05/22 08:08:33;;;;;;;0.03;0.03;;;12.40;99.90;;;;;;5112031;28;20163;-71
2021/05/22 08:10:59;;;;;;;0.00;0.00;;;12.30;99.90;;;;;;5092668;28;20190;-71
2021/05/22 08:13:28;;;;;;;0.10;0.10;;;12.30;99.90;;;;;;5111944;28;20242;-71
2021/05/22 08:15:56;;;;;;;0.10;0.10;;;12.30;99.90;;;;;;5111612;28;20144;-71
2021/05/22 08:18:22;;;;;;;0.10;0.10;;;12.20;99.90;;;;;;5093343;28;20177;-71
2021/05/22 08:20:49;;;;;;;0.00;0.00;;;12.10;99.90;;;;;;5093275;28;20339;-71
2021/05/22 08:23:15;;;;;;;0.70;0.70;;;12.10;99.90;;;;;;5111659;28;20151;-71
2021/05/22 08:25:41;;;;;;;0.22;0.22;;;12.20;99.90;;;;;;5111769;28;20215;-71
2021/05/22 08:28:08;;;;;;;0.10;0.10;;;12.20;99.90;;;;;;5111602;28;20152;-71
2021/05/22 08:30:35;;;;;;;0.10;0.10;;;12.20;99.90;;;;;;5111143;28;20209;-71
2021/05/22 08:33:02;;;;;;;0.85;0.85;;;12.30;99.90;;;;;;5111639;28;20152;-70
2021/05/22 08:35:30;;;;;;;0.50;0.50;;;12.30;99.90;;;;;;5110920;28;20166;-70
2021/05/22 08:37:56;;;;;;;0.25;0.15;;;12.30;99.90;;;;;;5110787;28;20213;-70
2021/05/22 08:40:27;;;;;;;0.00;0.00;;;12.50;99.90;;;;;;5110940;28;20656;-70
2021/05/22 08:42:54;;;;;;;0.10;0.10;;;12.40;99.90;;;;;;5110980;28;20286;-70
2021/05/22 08:45:23;;;;;;;3.05;0.45;;;12.40;99.90;;;;;;5111412;28;20158;-70
2021/05/22 08:47:52;;;;;;;0.35;0.35;;;12.50;99.90;;;;;;5111391;28;20258;-70
2021/05/22 08:50:19;;;;;;;0.00;0.00;;;12.50;99.90;;;;;;5111096;28;20155;-70
2021/05/22 08:52:46;;;;;;;0.68;0.68;;;12.60;99.90;;;;;;5092937;28;20206;-70
2021/05/22 08:55:13;;;;;;;0.15;0.15;;;12.60;99.90;;;;;;5111198;28;20159;-70
2021/05/22 08:57:40;;;;;;;0.63;0.32;;;12.60;99.90;;;;;;5092730;28;20179;-71
2021/05/22 09:00:11;;;;;;;0.10;0.10;;;12.60;99.90;;;;;;5092821;28;20281;-70
2021/05/22 09:02:38;;;;;;;0.73;0.68;;;12.60;99.90;;;;;;5092539;28;20576;-70
2021/05/22 09:05:21;;;;;;;0.22;0.22;;;12.50;99.90;;;;;;5110231;28;20411;-70
2021/05/22 09:07:51;;;;;;;0.20;0.20;;;12.50;99.90;;;;;;5110946;28;20178;-70
2021/05/22 09:10:29;;;;;;;0.10;0.10;;;12.40;99.90;;;;;;5092607;28;20167;-70
2021/05/22 09:12:58;;;;;;;0.00;0.00;;;12.30;99.90;;;;;;5110688;28;20689;-70
2021/05/22 09:15:27;;;;;;;0.20;0.20;;;12.30;99.90;;;;;;5092781;28;20197;-70
2021/05/22 09:17:57;;;;;;;0.10;0.10;;;12.40;99.90;;;;;;5110893;28;20152;-70
2021/05/22 09:20:29;;;;;;;0.10;0.10;;;12.50;99.90;;;;;;5110170;28;20191;-70
2021/05/22 09:23:09;;;;;;;0.10;0.10;;;12.50;99.90;;;;;;5109487;28;20191;-70
2021/05/22 09:25:41;;;;;;;1.90;1.10;;;12.60;99.90;;;;;;5110371;28;20166;-70
2021/05/22 09:28:09;;;;;;;0.30;0.30;;;12.60;99.90;;;;;;5110502;28;20148;-70
2021/05/22 09:30:37;;;;;;;0.10;0.10;;;12.60;99.90;;;;;;5092058;28;20160;-70
2021/05/22 09:33:10;;;;;;;0.22;0.22;;;12.50;99.90;;;;;;5092395;28;20559;-70
2021/05/22 09:35:36;;;;;;;0.10;0.10;;;12.60;99.90;;;;;;5091490;28;20171;-70
2021/05/22 09:38:02;;;;;;;0.10;0.10;;;12.60;99.90;;;;;;5110064;28;20188;-70
2021/05/22 09:40:36;;;;;;;0.98;0.98;;;12.70;99.90;;;;;;5110144;28;20306;-70
2021/05/22 09:43:05;;;;;;;0.08;0.08;;;12.70;99.90;;;;;;5110047;28;20238;-70
2021/05/22 09:45:34;;;;;;;0.03;0.03;;;12.80;99.90;;;;;;5110302;28;20156;-70
2021/05/22 09:48:23;;;;;;;0.45;0.40;;;12.80;99.90;;;;;;5091827;28;20167;-70
2021/05/22 09:50:54;;;;;;;0.38;0.38;;;12.90;99.90;;;;;;5109905;28;20671;-71
2021/05/22 09:53:35;;;;;;;0.10;0.10;;;12.80;99.90;;;;;;5109947;28;20274;-71
2021/05/22 09:56:07;;;;;;;0.00;0.00;;;12.90;99.90;;;;;;5110016;28;20156;-70
2021/05/22 09:58:35;;;;;;;0.20;0.20;;;12.80;99.90;;;;;;5091669;28;20191;-70
2021/05/22 10:01:01;;;;;;;0.95;0.90;;;12.80;99.90;;;;;;5109537;28;20217;-70
2021/05/22 10:03:27;;;;;;;0.85;0.85;;;12.70;99.90;;;;;;5109655;28;20188;-71
2021/05/22 10:05:52;;;;;;;0.00;0.00;;;12.70;99.90;;;;;;5109870;28;20164;-71
2021/05/22 10:08:19;;;;;;;0.00;0.00;;;12.60;99.90;;;;;;5105125;28;20246;-70
2021/05/22 10:10:49;;;;;;;0.08;0.08;;;12.60;99.90;;;;;;5118302;28;20205;-70
2021/05/22 10:13:19;;;;;;;0.20;0.20;;;12.60;99.90;;;;;;5090585;28;20222;-70
2021/05/22 10:15:48;;;;;;;0.20;0.20;;;12.60;99.90;;;;;;5109056;28;20176;-70
2021/05/22 10:18:16;;;;;;;0.17;0.17;;;12.50;99.90;;;;;;5109456;28;20163;-70
2021/05/22 10:20:42;;;;;;;0.47;0.47;;;12.60;99.90;;;;;;5091086;28;20172;-70
2021/05/22 10:23:10;;;;;;;0.20;0.20;;;12.60;99.90;;;;;;5109230;28;20191;-70
2021/05/22 10:25:36;;;;;;;0.20;0.20;;;12.80;99.90;;;;;;5109118;28;20148;-70
2021/05/22 10:28:04;;;;;;;0.13;0.13;;;12.80;99.90;;;;;;5109274;28;20155;-70
2021/05/22 10:30:31;;;;;;;0.35;0.35;;;12.80;99.90;;;;;;5109461;28;20155;-71
2021/05/22 10:33:02;;;;;;;1.45;0.40;;;13.00;99.90;;;;;;5090965;28;20211;-71
2021/05/22 10:35:38;;;;;;;0.80;0.80;;;13.10;99.90;;;;;;5089690;28;20167;-70
2021/05/22 10:38:04;;;;;;;0.00;0.00;;;13.30;99.90;;;;;;5090946;28;20234;-71
2021/05/22 10:40:48;;;;;;;0.30;0.30;;;13.50;99.90;;;;;;5109135;28;20197;-70
2021/05/22 10:43:15;;;;;;;3.72;0.43;;;13.60;99.90;;;;;;5108652;28;20243;-71
2021/05/22 10:45:43;;;;;;;0.20;0.20;;;13.80;99.90;;;;;;5090672;28;20183;-71
2021/05/22 10:48:29;;;;;;;0.13;0.13;;;13.80;99.90;;;;;;5109052;28;20177;-71
2021/05/22 10:50:55;;;;;;;1.17;0.85;;;14.00;99.90;;;;;;5108935;28;20190;-71
2021/05/22 10:53:29;;;;;;;0.13;0.13;;;13.90;99.90;;;;;;5108705;28;20191;-71
2021/05/22 10:56:10;;;;;;;0.40;0.40;;;13.80;99.90;;;;;;5108760;28;20208;-71
2021/05/22 10:58:59;;;;;;;0.40;0.40;;;13.90;99.90;;;;;;5109375;28;20207;-71
2021/05/22 11:01:26;;;;;;;0.35;0.22;;;14.00;99.90;;;;;;5090458;28;20175;-71
2021/05/22 11:06:49;;;;;;;0.03;0.03;;;13.90;99.90;;;;;;5108764;28;20163;-71
2021/05/22 11:11:58;;;;;;;0.55;0.55;;;14.30;99.90;;;;;;5108642;28;20169;-71
2021/05/22 11:14:39;;;;;;;0.22;0.22;;;14.50;99.90;;;;;;5108525;28;20246;-71
2021/05/22 11:17:21;;;;;;;0.10;0.10;;;14.60;99.90;;;;;;5108479;28;20164;-71
2021/05/22 11:20:06;;;;;;;0.22;0.22;;;14.70;99.90;;;;;;5108489;28;20184;-70
2021/05/22 11:22:57;;;;;;;0.00;0.00;;;15.00;99.90;;;;;;5108257;28;20188;-71
2021/05/22 11:25:25;;;;;;;0.00;0.00;;;15.10;99.90;;;;;;5088005;28;20182;-71
2021/05/22 11:27:56;;;;;;;0.30;0.30;;;15.10;99.90;;;;;;5086964;28;20188;-71
2021/05/22 11:30:43;;;;;;;0.10;0.10;;;15.30;99.90;;;;;;5070350;28;20171;-70
2021/05/22 11:33:26;;;;;;;0.15;0.15;;;15.60;99.90;;;;;;5088138;28;20192;-70
2021/05/22 11:35:57;;;;;;;0.10;0.10;;;15.90;99.90;;;;;;5091949;28;20238;-70
2021/05/22 11:38:24;;;;;;;0.10;0.10;;;16.10;99.90;;;;;;5086687;28;20234;-71
2021/05/22 11:40:51;;;;;;;0.30;0.30;;;16.10;99.90;;;;;;5099234;28;20263;-71
2021/05/22 11:43:20;;;;;;;0.30;0.30;;;16.50;99.90;;;;;;5107883;28;20211;-71
2021/05/22 11:45:49;;;;;;;0.85;0.65;;;16.90;99.90;;;;;;5090351;28;20171;-71
2021/05/22 11:48:29;;;;;;;0.20;0.20;;;17.20;99.90;;;;;;5093785;28;20163;-71
2021/05/22 11:51:01;;;;;;;0.28;0.28;;;17.30;99.90;;;;;;5093812;28;20230;-71
2021/05/22 11:53:29;;;;;;;0.10;0.10;;;17.10;99.90;;;;;;5111773;28;20243;-71
2021/05/22 11:56:01;;;;;;;0.22;0.22;;;16.80;99.90;;;;;;5112032;28;20245;-71
2021/05/22 11:58:28;;;;;;;1.25;1.17;;;17.00;99.90;;;;;;5112086;28;20148;-70
2021/05/22 12:00:55;;;;;;;0.32;0.32;;;17.40;99.90;;;;;;5111900;28;20171;-71
2021/05/22 12:03:26;;;;;;;0.30;0.30;;;17.50;99.90;;;;;;5110630;28;20197;-71
2021/05/22 12:05:54;;;;;;;0.10;0.10;;;17.70;99.90;;;;;;5093645;28;20187;-71
2021/05/22 12:08:31;;;;;;;0.47;0.32;;;17.80;99.90;;;;;;5111885;28;20156;-72
2021/05/22 12:10:56;;;;;;;0.10;0.10;;;18.10;99.90;;;;;;5112004;28;20167;-72
2021/05/22 12:13:25;;;;;;;0.52;0.52;;;18.40;99.90;;;;;;5111755;28;20159;-71
2021/05/22 12:15:53;;;;;;;0.28;0.28;;;18.70;99.90;;;;;;5111720;28;20190;-72
2021/05/22 12:18:19;;;;;;;0.10;0.10;;;18.80;99.90;;;;;;5111707;28;20155;-71
2021/05/22 12:20:54;;;;;;;0.40;0.40;;;18.80;99.90;;;;;;5111667;28;20152;-71
2021/05/22 12:23:36;;;;;;;0.20;0.20;;;18.50;99.90;;;;;;5111604;28;20159;-71
2021/05/22 12:26:06;;;;;;;0.38;0.38;;;18.10;99.90;;;;;;5111693;28;20198;-70
2021/05/22 12:28:32;;;;;;;0.30;0.30;;;17.60;99.90;;;;;;5111521;28;20163;-71
2021/05/22 12:30:59;;;;;;;0.00;0.00;;;17.30;99.90;;;;;;5111560;28;20153;-71
2021/05/22 12:33:27;;;;;;;0.10;0.10;;;17.20;99.90;;;;;;5111480;28;20156;-71
2021/05/22 12:36:08;;;;;;;0.50;0.50;;;17.20;99.90;;;;;;5110865;28;20187;-71
2021/05/22 12:38:45;;;;;;;0.35;0.35;;;17.10;99.90;;;;;;5111120;28;20198;-71
2021/05/22 12:41:13;;;;;;;0.65;0.43;;;16.80;99.90;;;;;;5111285;28;20199;-72
2021/05/22 12:43:48;;;;;;;0.40;0.40;;;16.60;99.90;;;;;;5111226;28;20190;-71
2021/05/22 12:46:31;;;;;;;0.10;0.10;;;16.20;99.90;;;;;;5111060;28;20190;-71
2021/05/22 12:49:20;;;;;;;0.10;0.10;;;16.10;99.90;;;;;;5111140;28;20167;-70
2021/05/22 12:51:59;;;;;;;1.00;1.00;;;16.10;99.90;;;;;;5111103;28;20167;-71
2021/05/22 12:54:37;;;;;;;0.63;0.63;;;16.30;99.90;;;;;;5111015;28;20256;-71
2021/05/22 12:57:17;;;;;;;0.13;0.13;;;16.40;99.90;;;;;;5092460;28;20166;-72
2021/05/22 13:00:08;;;;;;;0.20;0.20;;;16.50;99.90;;;;;;5111086;28;20193;-71